IBE3436 LEMD-ENTC
Flight info
| Callsign | IBE3436 |
|---|---|
| Flight time | 4h 22m |
| Altitude | 34000 |
| Route | RBO N867 BLV P87 BELEN DCT DIDIG UP87 TERPO UN867 EKRAS/N0442F360 UN867 AVANT/N0438F350 L980 MID UM185 DIGSU P5 BUZDE DCT ALOTI DCT BARVI |
| Aircraft | A320/M-SDE3FGHIRWY/LB1 |
Departure
| Time | 2026-05-05 00:05 |
|---|---|
| Airport | Adolfo Suárez Madrid–Barajas Airport (LEMD) |
Arrival
| Time | 2026-05-05 04:27 |
|---|---|
| Airport | Tromsø Airport (ENTC) |
| Time | Latitude | Longitude | Altitude | Speed | Heading |
|---|---|---|---|---|---|
| 2026-05-04 23:54 | 40.49409 | -3.56868 | 1977 ft | 0 kts | 90° |
| 2026-05-04 23:59 | 40.49409 | -3.56895 | 1976 ft | 4 kts | 95° |
| 2026-05-04 23:59 | 40.49413 | -3.56930 | 1976 ft | 4 kts | 104° |
| 2026-05-05 00:00 | 40.49422 | -3.56963 | 1977 ft | 4 kts | 118° |
| 2026-05-05 00:00 | 40.49426 | -3.56973 | 1978 ft | 4 kts | 124° |
| 2026-05-05 00:00 | 40.49457 | -3.57003 | 1979 ft | 1 kts | 180° |
| 2026-05-05 00:02 | 40.49417 | -3.57003 | 1977 ft | 14 kts | 180° |
| 2026-05-05 00:02 | 40.49309 | -3.57010 | 1978 ft | 13 kts | 205° |
| 2026-05-05 00:03 | 40.49286 | -3.57116 | 1979 ft | 14 kts | 271° |
| 2026-05-05 00:03 | 40.49253 | -3.57229 | 1982 ft | 16 kts | 192° |
| 2026-05-05 00:03 | 40.49182 | -3.57277 | 1983 ft | 13 kts | 265° |
| 2026-05-05 00:03 | 40.49181 | -3.57400 | 1984 ft | 13 kts | 273° |
| 2026-05-05 00:04 | 40.49251 | -3.57452 | 1983 ft | 15 kts | 360° |
| 2026-05-05 00:04 | 40.49460 | -3.57453 | 1983 ft | 59 kts | 360° |
| 2026-05-05 00:04 | 40.50088 | -3.57457 | 1987 ft | 120 kts | 360° |
| 2026-05-05 00:04 | 40.51092 | -3.57465 | 1997 ft | 167 kts | 359° |
| 2026-05-05 00:05 | 40.52361 | -3.57474 | 2252 ft | 188 kts | 358° |
| 2026-05-05 00:05 | 40.53662 | -3.57485 | 3004 ft | 186 kts | 358° |
| 2026-05-05 00:05 | 40.54972 | -3.57488 | 3565 ft | 194 kts | 3° |
| 2026-05-05 00:05 | 40.56377 | -3.57134 | 3788 ft | 216 kts | 13° |
| 2026-05-05 00:06 | 40.57874 | -3.56583 | 4204 ft | 228 kts | 14° |
| 2026-05-05 00:06 | 40.59402 | -3.55973 | 4909 ft | 230 kts | 14° |
| 2026-05-05 00:06 | 40.60939 | -3.55358 | 5599 ft | 232 kts | 14° |
| 2026-05-05 00:06 | 40.62502 | -3.54742 | 6227 ft | 237 kts | 14° |
| 2026-05-05 00:07 | 40.64078 | -3.53947 | 6634 ft | 255 kts | 31° |
| 2026-05-05 00:07 | 40.65453 | -3.52308 | 6939 ft | 277 kts | 44° |
| 2026-05-05 00:07 | 40.66804 | -3.50447 | 7540 ft | 284 kts | 45° |
| 2026-05-05 00:07 | 40.68171 | -3.48544 | 8234 ft | 288 kts | 45° |
| 2026-05-05 00:08 | 40.69559 | -3.46606 | 8935 ft | 293 kts | 45° |
| 2026-05-05 00:08 | 40.70970 | -3.44640 | 9637 ft | 297 kts | 46° |
| 2026-05-05 00:08 | 40.72409 | -3.42642 | 10236 ft | 306 kts | 45° |
| 2026-05-05 00:08 | 40.73911 | -3.40565 | 10392 ft | 328 kts | 45° |
| 2026-05-05 00:09 | 40.75540 | -3.38314 | 10595 ft | 348 kts | 45° |
| 2026-05-05 00:09 | 40.77234 | -3.35977 | 11115 ft | 355 kts | 45° |
| 2026-05-05 00:09 | 40.78952 | -3.33603 | 11712 ft | 360 kts | 45° |
| 2026-05-05 00:09 | 40.80689 | -3.31196 | 12315 ft | 364 kts | 45° |
| 2026-05-05 00:10 | 40.82448 | -3.28752 | 12904 ft | 369 kts | 45° |
| 2026-05-05 00:10 | 40.84263 | -3.26331 | 13475 ft | 372 kts | 38° |
| 2026-05-05 00:10 | 40.86461 | -3.24556 | 14012 ft | 371 kts | 18° |
| 2026-05-05 00:10 | 40.88955 | -3.23732 | 14501 ft | 371 kts | 6° |
| 2026-05-05 00:11 | 40.90647 | -3.23364 | 14841 ft | 373 kts | 5° |
| 2026-05-05 00:11 | 40.93228 | -3.22815 | 15360 ft | 377 kts | 5° |
| 2026-05-05 00:11 | 40.95830 | -3.22265 | 15897 ft | 380 kts | 5° |
| 2026-05-05 00:11 | 40.98455 | -3.21706 | 16414 ft | 384 kts | 5° |
| 2026-05-05 00:12 | 41.01104 | -3.21139 | 16931 ft | 387 kts | 5° |
| 2026-05-05 00:12 | 41.03774 | -3.20557 | 17435 ft | 391 kts | 5° |
| 2026-05-05 00:12 | 41.06466 | -3.19965 | 17918 ft | 394 kts | 5° |
| 2026-05-05 00:12 | 41.09183 | -3.19358 | 18434 ft | 398 kts | 5° |
| 2026-05-05 00:13 | 41.11926 | -3.18742 | 18829 ft | 401 kts | 5° |
| 2026-05-05 00:13 | 41.14687 | -3.18118 | 19267 ft | 404 kts | 5° |
| 2026-05-05 00:13 | 41.17473 | -3.17487 | 19713 ft | 407 kts | 5° |
| 2026-05-05 00:13 | 41.20276 | -3.16849 | 20147 ft | 410 kts | 5° |
| 2026-05-05 00:14 | 41.23101 | -3.16207 | 20562 ft | 413 kts | 5° |
| 2026-05-05 00:14 | 41.25905 | -3.15571 | 20980 ft | 415 kts | 5° |
| 2026-05-05 00:14 | 41.28765 | -3.14926 | 21391 ft | 418 kts | 4° |
| 2026-05-05 00:14 | 41.31680 | -3.14270 | 21829 ft | 421 kts | 4° |
| 2026-05-05 00:15 | 41.34576 | -3.13617 | 22241 ft | 423 kts | 4° |
| 2026-05-05 00:15 | 41.37490 | -3.12957 | 22642 ft | 426 kts | 4° |
| 2026-05-05 00:15 | 41.40381 | -3.12300 | 23039 ft | 429 kts | 4° |
| 2026-05-05 00:15 | 41.43326 | -3.11632 | 23426 ft | 431 kts | 4° |
| 2026-05-05 00:16 | 41.46296 | -3.10957 | 23765 ft | 434 kts | 4° |
| 2026-05-05 00:16 | 41.49278 | -3.10277 | 24080 ft | 436 kts | 4° |
| 2026-05-05 00:16 | 41.52284 | -3.09591 | 24416 ft | 439 kts | 4° |
| 2026-05-05 00:16 | 41.55311 | -3.08902 | 24684 ft | 443 kts | 4° |
| 2026-05-05 00:17 | 41.58359 | -3.08209 | 24965 ft | 445 kts | 4° |
| 2026-05-05 00:17 | 41.61418 | -3.07512 | 25262 ft | 448 kts | 4° |
| 2026-05-05 00:17 | 41.64499 | -3.06813 | 25553 ft | 450 kts | 4° |
| 2026-05-05 00:17 | 41.67589 | -3.06109 | 25839 ft | 452 kts | 4° |
| 2026-05-05 00:18 | 41.70699 | -3.05401 | 26138 ft | 454 kts | 4° |
| 2026-05-05 00:18 | 41.73821 | -3.04693 | 26405 ft | 456 kts | 4° |
| 2026-05-05 00:18 | 41.76956 | -3.03980 | 26682 ft | 459 kts | 4° |
| 2026-05-05 00:18 | 41.80113 | -3.03255 | 26961 ft | 461 kts | 4° |
| 2026-05-05 00:19 | 41.83277 | -3.02522 | 27246 ft | 463 kts | 4° |
| 2026-05-05 00:19 | 41.86462 | -3.01782 | 27530 ft | 465 kts | 4° |
| 2026-05-05 00:19 | 41.89660 | -3.01042 | 27816 ft | 467 kts | 4° |
| 2026-05-05 00:19 | 41.92879 | -3.00303 | 28093 ft | 469 kts | 3° |
| 2026-05-05 00:20 | 41.96104 | -2.99563 | 28391 ft | 471 kts | 4° |
| 2026-05-05 00:20 | 41.99344 | -2.98816 | 28657 ft | 473 kts | 4° |
| 2026-05-05 00:20 | 42.02596 | -2.98062 | 28932 ft | 475 kts | 4° |
| 2026-05-05 00:20 | 42.05860 | -2.97302 | 29193 ft | 477 kts | 4° |
| 2026-05-05 00:21 | 42.09136 | -2.96538 | 29441 ft | 479 kts | 4° |
| 2026-05-05 00:21 | 42.12424 | -2.95771 | 29691 ft | 481 kts | 4° |
| 2026-05-05 00:21 | 42.15679 | -2.95015 | 29932 ft | 482 kts | 4° |
| 2026-05-05 00:21 | 42.18990 | -2.94244 | 30155 ft | 484 kts | 4° |
| 2026-05-05 00:22 | 42.22351 | -2.93458 | 30376 ft | 484 kts | 4° |
| 2026-05-05 00:22 | 42.25626 | -2.92688 | 30675 ft | 483 kts | 4° |
| 2026-05-05 00:22 | 42.28937 | -2.91911 | 30948 ft | 483 kts | 4° |
| 2026-05-05 00:22 | 42.32242 | -2.91139 | 31207 ft | 482 kts | 4° |
| 2026-05-05 00:23 | 42.35553 | -2.90367 | 31469 ft | 482 kts | 4° |
| 2026-05-05 00:23 | 42.38860 | -2.89592 | 31760 ft | 481 kts | 5° |
| 2026-05-05 00:23 | 42.42158 | -2.88817 | 32035 ft | 481 kts | 5° |
| 2026-05-05 00:23 | 42.45459 | -2.88227 | 32288 ft | 476 kts | 358° |
| 2026-05-05 00:24 | 42.48748 | -2.88233 | 32548 ft | 471 kts | 352° |
| 2026-05-05 00:24 | 42.52021 | -2.88416 | 32806 ft | 471 kts | 352° |
| 2026-05-05 00:24 | 42.55291 | -2.88592 | 33068 ft | 470 kts | 352° |
| 2026-05-05 00:24 | 42.58563 | -2.88762 | 33339 ft | 470 kts | 353° |
| 2026-05-05 00:25 | 42.61829 | -2.88930 | 33617 ft | 469 kts | 353° |
| 2026-05-05 00:25 | 42.65087 | -2.89099 | 33888 ft | 468 kts | 353° |
| 2026-05-05 00:25 | 42.68344 | -2.89269 | 34013 ft | 467 kts | 353° |
| 2026-05-05 00:26 | 42.74809 | -2.89595 | 34035 ft | 463 kts | 353° |
| 2026-05-05 00:26 | 42.81235 | -2.89925 | 34035 ft | 462 kts | 353° |
| 2026-05-05 00:27 | 42.87622 | -2.90263 | 34035 ft | 462 kts | 353° |
| 2026-05-05 00:27 | 42.94046 | -2.90607 | 34036 ft | 462 kts | 353° |
| 2026-05-05 00:28 | 43.00462 | -2.90954 | 34057 ft | 461 kts | 353° |
| 2026-05-05 00:28 | 43.06882 | -2.91296 | 34053 ft | 462 kts | 353° |
| 2026-05-05 00:29 | 43.13310 | -2.91632 | 34052 ft | 462 kts | 353° |
| 2026-05-05 00:29 | 43.19735 | -2.91967 | 34067 ft | 462 kts | 354° |
| 2026-05-05 00:30 | 43.26160 | -2.92307 | 34057 ft | 462 kts | 354° |
| 2026-05-05 00:30 | 43.32596 | -2.91910 | 34050 ft | 468 kts | 8° |
| 2026-05-05 00:31 | 43.38941 | -2.90039 | 34054 ft | 469 kts | 9° |
| 2026-05-05 00:31 | 43.45317 | -2.88159 | 34060 ft | 468 kts | 9° |
| 2026-05-05 00:32 | 43.51691 | -2.86284 | 34050 ft | 468 kts | 9° |
| 2026-05-05 00:32 | 43.58063 | -2.84412 | 34033 ft | 468 kts | 9° |
| 2026-05-05 00:33 | 43.64425 | -2.82540 | 34035 ft | 468 kts | 10° |
| 2026-05-05 00:33 | 43.70792 | -2.80648 | 34028 ft | 468 kts | 11° |
| 2026-05-05 00:34 | 43.77144 | -2.78610 | 34020 ft | 468 kts | 11° |
| 2026-05-05 00:34 | 43.83474 | -2.76490 | 34019 ft | 468 kts | 12° |
| 2026-05-05 00:35 | 43.89811 | -2.74384 | 34011 ft | 468 kts | 12° |
| 2026-05-05 00:35 | 43.96189 | -2.72559 | 34009 ft | 468 kts | 7° |
| 2026-05-05 00:36 | 44.02579 | -2.71244 | 34022 ft | 467 kts | 6° |
| 2026-05-05 00:36 | 44.09018 | -2.69979 | 34017 ft | 467 kts | 6° |
| 2026-05-05 00:37 | 44.15447 | -2.68595 | 34009 ft | 467 kts | 7° |
| 2026-05-05 00:37 | 44.21865 | -2.67140 | 33990 ft | 467 kts | 8° |
| 2026-05-05 00:38 | 44.28285 | -2.65691 | 33995 ft | 468 kts | 7° |
| 2026-05-05 00:38 | 44.34716 | -2.64247 | 33990 ft | 468 kts | 7° |
| 2026-05-05 00:39 | 44.41152 | -2.62804 | 33997 ft | 469 kts | 8° |
| 2026-05-05 00:39 | 44.47596 | -2.61373 | 33994 ft | 469 kts | 8° |
| 2026-05-05 00:40 | 44.54038 | -2.59930 | 33994 ft | 469 kts | 8° |
| 2026-05-05 00:40 | 44.60442 | -2.58490 | 33987 ft | 469 kts | 8° |
| 2026-05-05 00:41 | 44.66883 | -2.57032 | 33999 ft | 468 kts | 8° |
| 2026-05-05 00:41 | 44.73315 | -2.55570 | 33995 ft | 468 kts | 8° |
| 2026-05-05 00:42 | 44.79749 | -2.54109 | 33983 ft | 468 kts | 8° |
| 2026-05-05 00:42 | 44.86172 | -2.52656 | 33993 ft | 468 kts | 8° |
| 2026-05-05 00:43 | 44.92604 | -2.51197 | 33994 ft | 468 kts | 8° |
| 2026-05-05 00:43 | 44.99029 | -2.49721 | 33996 ft | 467 kts | 8° |
| 2026-05-05 00:44 | 45.05447 | -2.48248 | 33989 ft | 467 kts | 8° |
| 2026-05-05 00:44 | 45.11860 | -2.46784 | 33993 ft | 467 kts | 8° |
| 2026-05-05 00:45 | 45.18270 | -2.45316 | 33994 ft | 466 kts | 8° |
| 2026-05-05 00:45 | 45.24681 | -2.43834 | 33988 ft | 466 kts | 8° |
| 2026-05-05 00:46 | 45.31039 | -2.42359 | 33988 ft | 466 kts | 8° |
| 2026-05-05 00:46 | 45.37436 | -2.40887 | 33983 ft | 466 kts | 9° |
| 2026-05-05 00:47 | 45.43832 | -2.39412 | 33982 ft | 465 kts | 9° |
| 2026-05-05 00:47 | 45.50222 | -2.37926 | 33977 ft | 465 kts | 9° |
| 2026-05-05 00:48 | 45.56616 | -2.36435 | 33982 ft | 465 kts | 9° |
| 2026-05-05 00:48 | 45.62996 | -2.34941 | 33989 ft | 465 kts | 9° |
| 2026-05-05 00:49 | 45.69383 | -2.33452 | 33959 ft | 465 kts | 9° |
| 2026-05-05 00:49 | 45.75774 | -2.31951 | 33955 ft | 466 kts | 9° |
| 2026-05-05 00:50 | 45.82171 | -2.30448 | 33968 ft | 466 kts | 9° |
| 2026-05-05 00:50 | 45.88561 | -2.28949 | 33964 ft | 465 kts | 9° |
| 2026-05-05 00:51 | 45.94953 | -2.27439 | 33956 ft | 465 kts | 9° |
| 2026-05-05 00:51 | 46.01299 | -2.25926 | 33973 ft | 465 kts | 9° |
| 2026-05-05 00:52 | 46.07675 | -2.24408 | 33975 ft | 464 kts | 9° |
| 2026-05-05 00:52 | 46.14045 | -2.22861 | 33975 ft | 464 kts | 9° |
| 2026-05-05 00:53 | 46.20404 | -2.21296 | 33976 ft | 463 kts | 10° |
| 2026-05-05 00:53 | 46.26754 | -2.19743 | 33975 ft | 463 kts | 10° |
| 2026-05-05 00:54 | 46.33097 | -2.18191 | 33971 ft | 462 kts | 10° |
| 2026-05-05 00:54 | 46.39442 | -2.16638 | 33971 ft | 462 kts | 10° |
| 2026-05-05 00:55 | 46.45772 | -2.15074 | 33969 ft | 461 kts | 10° |
| 2026-05-05 00:55 | 46.52101 | -2.13497 | 33967 ft | 461 kts | 10° |
| 2026-05-05 00:56 | 46.58420 | -2.11939 | 33967 ft | 461 kts | 11° |
| 2026-05-05 00:56 | 46.64735 | -2.10379 | 33960 ft | 460 kts | 11° |
| 2026-05-05 00:57 | 46.71045 | -2.08809 | 33955 ft | 460 kts | 11° |
| 2026-05-05 00:57 | 46.77312 | -2.07239 | 33955 ft | 460 kts | 11° |
| 2026-05-05 00:58 | 46.83620 | -2.05663 | 33955 ft | 459 kts | 11° |
| 2026-05-05 00:58 | 46.89919 | -2.04084 | 33932 ft | 459 kts | 11° |
| 2026-05-05 00:59 | 46.96227 | -2.02513 | 33928 ft | 460 kts | 11° |
| 2026-05-05 00:59 | 47.01520 | -2.01189 | 33930 ft | 461 kts | 11° |
| 2026-05-05 01:00 | 47.07818 | -1.99614 | 33933 ft | 462 kts | 11° |
| 2026-05-05 01:00 | 47.14171 | -1.98042 | 33930 ft | 463 kts | 11° |
| 2026-05-05 01:01 | 47.20527 | -1.96467 | 33933 ft | 464 kts | 11° |
| 2026-05-05 01:01 | 47.26893 | -1.94884 | 33936 ft | 464 kts | 11° |
| 2026-05-05 01:02 | 47.33252 | -1.93228 | 33934 ft | 463 kts | 15° |
| 2026-05-05 01:02 | 47.39208 | -1.89811 | 33934 ft | 459 kts | 28° |
| 2026-05-05 01:03 | 47.44953 | -1.85661 | 33940 ft | 459 kts | 28° |
| 2026-05-05 01:03 | 47.50702 | -1.81521 | 33937 ft | 460 kts | 28° |
| 2026-05-05 01:04 | 47.56452 | -1.77380 | 33936 ft | 460 kts | 28° |
| 2026-05-05 01:04 | 47.65069 | -1.71137 | 33940 ft | 459 kts | 28° |
| 2026-05-05 01:05 | 47.70806 | -1.66976 | 33922 ft | 459 kts | 28° |
| 2026-05-05 01:05 | 47.76546 | -1.62792 | 33921 ft | 460 kts | 28° |
| 2026-05-05 01:06 | 47.82254 | -1.58617 | 33931 ft | 461 kts | 28° |
| 2026-05-05 01:06 | 47.88009 | -1.54406 | 33941 ft | 461 kts | 28° |
| 2026-05-05 01:07 | 47.93768 | -1.50190 | 33946 ft | 461 kts | 28° |
| 2026-05-05 01:07 | 47.99558 | -1.46055 | 33947 ft | 463 kts | 22° |
| 2026-05-05 01:08 | 48.05849 | -1.43988 | 33952 ft | 466 kts | 3° |
| 2026-05-05 01:08 | 48.12328 | -1.44287 | 33950 ft | 466 kts | 357° |
| 2026-05-05 01:09 | 48.18812 | -1.44747 | 33948 ft | 466 kts | 358° |
| 2026-05-05 01:09 | 48.25257 | -1.45189 | 33946 ft | 467 kts | 358° |
| 2026-05-05 01:10 | 48.31742 | -1.45644 | 33948 ft | 467 kts | 357° |
| 2026-05-05 01:10 | 48.38233 | -1.46123 | 33946 ft | 467 kts | 357° |
| 2026-05-05 01:11 | 48.44719 | -1.46610 | 33943 ft | 467 kts | 357° |
| 2026-05-05 01:11 | 48.51205 | -1.47080 | 33951 ft | 466 kts | 358° |
| 2026-05-05 01:12 | 48.57692 | -1.47548 | 33956 ft | 466 kts | 358° |
| 2026-05-05 01:12 | 48.64179 | -1.48018 | 33957 ft | 466 kts | 358° |
| 2026-05-05 01:13 | 48.70670 | -1.48497 | 33953 ft | 467 kts | 357° |
| 2026-05-05 01:13 | 48.77162 | -1.48993 | 33957 ft | 467 kts | 357° |
| 2026-05-05 01:14 | 48.83664 | -1.49468 | 33960 ft | 468 kts | 358° |
| 2026-05-05 01:14 | 48.90168 | -1.49849 | 33961 ft | 467 kts | 2° |
| 2026-05-05 01:15 | 48.96651 | -1.49135 | 33969 ft | 467 kts | 5° |
| 2026-05-05 01:15 | 49.03090 | -1.48361 | 33970 ft | 467 kts | 5° |
| 2026-05-05 01:16 | 49.09572 | -1.47588 | 33966 ft | 467 kts | 5° |
| 2026-05-05 01:16 | 49.16060 | -1.46820 | 33960 ft | 468 kts | 5° |
| 2026-05-05 01:17 | 49.22561 | -1.46047 | 33963 ft | 469 kts | 5° |
| 2026-05-05 01:17 | 49.29064 | -1.45273 | 33968 ft | 469 kts | 5° |
| 2026-05-05 01:18 | 49.35577 | -1.44491 | 33975 ft | 469 kts | 5° |
| 2026-05-05 01:18 | 49.42091 | -1.43714 | 33982 ft | 469 kts | 5° |
| 2026-05-05 01:19 | 49.48614 | -1.42936 | 33989 ft | 469 kts | 5° |
| 2026-05-05 01:19 | 49.55123 | -1.42140 | 33995 ft | 469 kts | 6° |
| 2026-05-05 01:20 | 49.58305 | -1.41125 | 34000 ft | 466 kts | 21° |
| 2026-05-05 01:20 | 49.61329 | -1.39344 | 34004 ft | 465 kts | 22° |
| 2026-05-05 01:20 | 49.67360 | -1.35692 | 34003 ft | 465 kts | 23° |
| 2026-05-05 01:21 | 49.73389 | -1.31995 | 33976 ft | 467 kts | 23° |
| 2026-05-05 01:21 | 49.79398 | -1.28313 | 33972 ft | 468 kts | 23° |
| 2026-05-05 01:22 | 49.85464 | -1.24590 | 33975 ft | 469 kts | 22° |
| 2026-05-05 01:22 | 49.91533 | -1.20878 | 33981 ft | 469 kts | 22° |
| 2026-05-05 01:23 | 49.97608 | -1.17142 | 33981 ft | 469 kts | 22° |
| 2026-05-05 01:23 | 50.03671 | -1.13401 | 34010 ft | 468 kts | 22° |
| 2026-05-05 01:24 | 50.09714 | -1.09664 | 34019 ft | 467 kts | 22° |
| 2026-05-05 01:24 | 50.15754 | -1.05921 | 34018 ft | 466 kts | 22° |
| 2026-05-05 01:25 | 50.21779 | -1.02164 | 34014 ft | 466 kts | 22° |
| 2026-05-05 01:25 | 50.27782 | -0.98405 | 34021 ft | 464 kts | 22° |
| 2026-05-05 01:26 | 50.33771 | -0.94654 | 34160 ft | 463 kts | 22° |
| 2026-05-05 01:26 | 50.36758 | -0.92774 | 34397 ft | 462 kts | 22° |
| 2026-05-05 01:26 | 50.39738 | -0.90894 | 34607 ft | 462 kts | 22° |
| 2026-05-05 01:27 | 50.42718 | -0.89017 | 34852 ft | 461 kts | 22° |
| 2026-05-05 01:27 | 50.45699 | -0.87139 | 34971 ft | 462 kts | 22° |
| 2026-05-05 01:27 | 50.51657 | -0.83379 | 35002 ft | 461 kts | 22° |
| 2026-05-05 01:28 | 50.57609 | -0.79621 | 35002 ft | 461 kts | 22° |
| 2026-05-05 01:28 | 50.63521 | -0.75872 | 35003 ft | 461 kts | 22° |
| 2026-05-05 01:29 | 50.69425 | -0.72111 | 35008 ft | 454 kts | 22° |
| 2026-05-05 01:29 | 50.75269 | -0.68380 | 35009 ft | 453 kts | 22° |
| 2026-05-05 01:30 | 50.81110 | -0.64649 | 35009 ft | 452 kts | 22° |
| 2026-05-05 01:30 | 50.86942 | -0.60916 | 35009 ft | 452 kts | 22° |
| 2026-05-05 01:31 | 50.92774 | -0.57167 | 35025 ft | 451 kts | 22° |
| 2026-05-05 01:31 | 50.98584 | -0.53420 | 35025 ft | 449 kts | 22° |
| 2026-05-05 01:32 | 51.04365 | -0.49675 | 35021 ft | 448 kts | 22° |
| 2026-05-05 01:32 | 51.10141 | -0.45931 | 35015 ft | 448 kts | 22° |
| 2026-05-05 01:33 | 51.15904 | -0.42171 | 35010 ft | 447 kts | 22° |
| 2026-05-05 01:33 | 51.21672 | -0.38410 | 35006 ft | 447 kts | 22° |
| 2026-05-05 01:34 | 51.27434 | -0.34651 | 35001 ft | 447 kts | 22° |
| 2026-05-05 01:34 | 51.33192 | -0.30878 | 35025 ft | 447 kts | 22° |
| 2026-05-05 01:35 | 51.38826 | -0.27167 | 35041 ft | 446 kts | 22° |
| 2026-05-05 01:35 | 51.44422 | -0.23478 | 35045 ft | 444 kts | 22° |
| 2026-05-05 01:36 | 51.50132 | -0.19701 | 35043 ft | 444 kts | 22° |
| 2026-05-05 01:36 | 51.55838 | -0.15925 | 35039 ft | 443 kts | 22° |
| 2026-05-05 01:37 | 51.61091 | -0.12439 | 35041 ft | 442 kts | 23° |
| 2026-05-05 01:37 | 51.66776 | -0.08658 | 35042 ft | 442 kts | 23° |
| 2026-05-05 01:38 | 51.72167 | -0.05060 | 35042 ft | 441 kts | 23° |
| 2026-05-05 01:38 | 51.77276 | -0.01635 | 35043 ft | 441 kts | 23° |
| 2026-05-05 01:39 | 51.82945 | 0.02168 | 35023 ft | 442 kts | 23° |
| 2026-05-05 01:39 | 51.88623 | 0.05993 | 35019 ft | 442 kts | 23° |
| 2026-05-05 01:40 | 51.94308 | 0.09834 | 35019 ft | 442 kts | 23° |
| 2026-05-05 01:40 | 51.99990 | 0.13689 | 35019 ft | 443 kts | 23° |
| 2026-05-05 01:41 | 52.05638 | 0.17525 | 35028 ft | 443 kts | 23° |
| 2026-05-05 01:41 | 52.11315 | 0.21387 | 35046 ft | 442 kts | 23° |
| 2026-05-05 01:42 | 52.16975 | 0.25247 | 35049 ft | 441 kts | 23° |
| 2026-05-05 01:42 | 52.22629 | 0.29112 | 35048 ft | 440 kts | 23° |
| 2026-05-05 01:43 | 52.28274 | 0.32978 | 35045 ft | 440 kts | 23° |
| 2026-05-05 01:43 | 52.33904 | 0.36855 | 35064 ft | 439 kts | 23° |
| 2026-05-05 01:44 | 52.38578 | 0.40088 | 35050 ft | 438 kts | 23° |
| 2026-05-05 01:44 | 52.44184 | 0.43970 | 35057 ft | 437 kts | 23° |
| 2026-05-05 01:45 | 52.49778 | 0.47849 | 35054 ft | 436 kts | 23° |
| 2026-05-05 01:45 | 52.55369 | 0.51743 | 35034 ft | 436 kts | 23° |
| 2026-05-05 01:46 | 52.60961 | 0.55634 | 35028 ft | 436 kts | 23° |
| 2026-05-05 01:46 | 52.66546 | 0.59534 | 35026 ft | 436 kts | 23° |
| 2026-05-05 01:47 | 52.72134 | 0.63460 | 35027 ft | 436 kts | 23° |
| 2026-05-05 01:47 | 52.77680 | 0.67366 | 35047 ft | 436 kts | 23° |
| 2026-05-05 01:48 | 52.83253 | 0.71289 | 35066 ft | 434 kts | 23° |
| 2026-05-05 01:48 | 52.88813 | 0.75213 | 35058 ft | 433 kts | 23° |
| 2026-05-05 01:49 | 52.94343 | 0.79140 | 35058 ft | 432 kts | 24° |
| 2026-05-05 01:49 | 52.99862 | 0.83071 | 35051 ft | 431 kts | 24° |
| 2026-05-05 01:50 | 53.05382 | 0.87007 | 35047 ft | 431 kts | 24° |
| 2026-05-05 01:50 | 53.10886 | 0.90941 | 35046 ft | 431 kts | 24° |
| 2026-05-05 01:51 | 53.16357 | 0.94862 | 35047 ft | 431 kts | 24° |
| 2026-05-05 01:51 | 53.21860 | 0.98826 | 35045 ft | 431 kts | 24° |
| 2026-05-05 01:52 | 53.27354 | 1.02795 | 35044 ft | 431 kts | 23° |
| 2026-05-05 01:52 | 53.32859 | 1.06767 | 35036 ft | 431 kts | 23° |
| 2026-05-05 01:53 | 53.38365 | 1.10763 | 35037 ft | 431 kts | 23° |
| 2026-05-05 01:53 | 53.43876 | 1.14772 | 35038 ft | 432 kts | 23° |
| 2026-05-05 01:54 | 53.49385 | 1.18794 | 35037 ft | 432 kts | 23° |
| 2026-05-05 01:54 | 53.54891 | 1.22819 | 35035 ft | 432 kts | 23° |
| 2026-05-05 01:55 | 53.60398 | 1.26857 | 35034 ft | 432 kts | 23° |
| 2026-05-05 01:55 | 53.65873 | 1.30878 | 35034 ft | 432 kts | 23° |
| 2026-05-05 01:56 | 53.71376 | 1.34944 | 35035 ft | 432 kts | 24° |
| 2026-05-05 01:56 | 53.76914 | 1.38895 | 35030 ft | 431 kts | 17° |
| 2026-05-05 01:57 | 53.82687 | 1.41690 | 35025 ft | 432 kts | 15° |
| 2026-05-05 01:57 | 53.88475 | 1.44478 | 35021 ft | 432 kts | 15° |
| 2026-05-05 01:58 | 53.94229 | 1.47269 | 35023 ft | 433 kts | 15° |
| 2026-05-05 01:58 | 54.00017 | 1.50084 | 35028 ft | 433 kts | 15° |
| 2026-05-05 01:59 | 54.05814 | 1.52896 | 35021 ft | 433 kts | 15° |
| 2026-05-05 01:59 | 54.11618 | 1.55723 | 35020 ft | 434 kts | 15° |
| 2026-05-05 02:00 | 54.17424 | 1.58555 | 35018 ft | 434 kts | 15° |
| 2026-05-05 02:00 | 54.23229 | 1.61401 | 35023 ft | 434 kts | 15° |
| 2026-05-05 02:01 | 54.29038 | 1.64264 | 35017 ft | 434 kts | 14° |
| 2026-05-05 02:01 | 54.34850 | 1.67139 | 35014 ft | 435 kts | 14° |
| 2026-05-05 02:02 | 54.40632 | 1.70011 | 35013 ft | 435 kts | 14° |
| 2026-05-05 02:02 | 54.46488 | 1.72921 | 35014 ft | 435 kts | 14° |
| 2026-05-05 02:03 | 54.52272 | 1.75787 | 35015 ft | 436 kts | 14° |
| 2026-05-05 02:03 | 54.58102 | 1.78679 | 35012 ft | 436 kts | 14° |
| 2026-05-05 02:04 | 54.63934 | 1.81603 | 35012 ft | 437 kts | 14° |
| 2026-05-05 02:04 | 54.69763 | 1.84545 | 35013 ft | 437 kts | 14° |
| 2026-05-05 02:05 | 54.75608 | 1.87498 | 35026 ft | 437 kts | 13° |
| 2026-05-05 02:05 | 54.81457 | 1.90454 | 35018 ft | 438 kts | 13° |
| 2026-05-05 02:06 | 54.87312 | 1.93419 | 35012 ft | 438 kts | 13° |
| 2026-05-05 02:06 | 54.93129 | 1.96374 | 35015 ft | 438 kts | 13° |
| 2026-05-05 02:07 | 54.98987 | 1.99360 | 35014 ft | 439 kts | 13° |
| 2026-05-05 02:07 | 55.04849 | 2.02358 | 35009 ft | 440 kts | 13° |
| 2026-05-05 02:08 | 55.10719 | 2.05380 | 35006 ft | 440 kts | 13° |
| 2026-05-05 02:08 | 55.16602 | 2.08414 | 35003 ft | 441 kts | 13° |
| 2026-05-05 02:09 | 55.22500 | 2.11449 | 35005 ft | 441 kts | 13° |
| 2026-05-05 02:09 | 55.28395 | 2.14492 | 35023 ft | 442 kts | 13° |
| 2026-05-05 02:10 | 55.34293 | 2.17555 | 35017 ft | 442 kts | 13° |
| 2026-05-05 02:10 | 55.40192 | 2.20636 | 35015 ft | 442 kts | 13° |
| 2026-05-05 02:11 | 55.46090 | 2.23725 | 35011 ft | 443 kts | 13° |
| 2026-05-05 02:11 | 55.51998 | 2.26821 | 35031 ft | 443 kts | 12° |
| 2026-05-05 02:12 | 55.60872 | 2.31491 | 35016 ft | 444 kts | 12° |
| 2026-05-05 02:13 | 55.66797 | 2.34634 | 35015 ft | 444 kts | 13° |
| 2026-05-05 02:13 | 55.72721 | 2.37770 | 35017 ft | 445 kts | 12° |
| 2026-05-05 02:14 | 55.78611 | 2.40901 | 35032 ft | 445 kts | 12° |
| 2026-05-05 02:14 | 55.84540 | 2.44078 | 35022 ft | 445 kts | 12° |
| 2026-05-05 02:15 | 55.90476 | 2.47246 | 35020 ft | 445 kts | 12° |
| 2026-05-05 02:15 | 55.96413 | 2.50442 | 35016 ft | 446 kts | 12° |
| 2026-05-05 02:16 | 56.02352 | 2.53633 | 35012 ft | 446 kts | 12° |
| 2026-05-05 02:16 | 56.08291 | 2.56845 | 35002 ft | 446 kts | 12° |
| 2026-05-05 02:17 | 56.14228 | 2.60078 | 35003 ft | 446 kts | 12° |
| 2026-05-05 02:17 | 56.20159 | 2.63304 | 35002 ft | 445 kts | 12° |
| 2026-05-05 02:18 | 56.26092 | 2.66520 | 35001 ft | 445 kts | 12° |
| 2026-05-05 02:18 | 56.32025 | 2.69760 | 35011 ft | 446 kts | 12° |
| 2026-05-05 02:19 | 56.37919 | 2.73010 | 35004 ft | 446 kts | 12° |
| 2026-05-05 02:19 | 56.43850 | 2.76280 | 34980 ft | 446 kts | 12° |
| 2026-05-05 02:20 | 56.49779 | 2.79557 | 34986 ft | 446 kts | 12° |
| 2026-05-05 02:20 | 56.55711 | 2.82849 | 35014 ft | 446 kts | 11° |
| 2026-05-05 02:21 | 56.61644 | 2.86151 | 34990 ft | 446 kts | 11° |
| 2026-05-05 02:21 | 56.67576 | 2.89451 | 34984 ft | 446 kts | 11° |
| 2026-05-05 02:22 | 56.73510 | 2.92776 | 34973 ft | 446 kts | 11° |
| 2026-05-05 02:22 | 56.79434 | 2.96110 | 34965 ft | 446 kts | 11° |
| 2026-05-05 02:23 | 56.85369 | 2.99466 | 34987 ft | 446 kts | 11° |
| 2026-05-05 02:23 | 56.91299 | 3.02836 | 34983 ft | 447 kts | 11° |
| 2026-05-05 02:24 | 56.97239 | 3.06217 | 34994 ft | 447 kts | 11° |
| 2026-05-05 02:24 | 57.03178 | 3.09596 | 35008 ft | 447 kts | 11° |
| 2026-05-05 02:25 | 57.09084 | 3.12954 | 35032 ft | 447 kts | 11° |
| 2026-05-05 02:25 | 57.15031 | 3.16357 | 35014 ft | 448 kts | 11° |
| 2026-05-05 02:26 | 57.20982 | 3.19787 | 35009 ft | 448 kts | 11° |
| 2026-05-05 02:26 | 57.26931 | 3.23240 | 35014 ft | 447 kts | 11° |
| 2026-05-05 02:27 | 57.32868 | 3.26673 | 35007 ft | 447 kts | 11° |
| 2026-05-05 02:27 | 57.38808 | 3.30129 | 35032 ft | 447 kts | 11° |
| 2026-05-05 02:28 | 57.44759 | 3.33587 | 35021 ft | 447 kts | 11° |
| 2026-05-05 02:28 | 57.50657 | 3.37034 | 35013 ft | 448 kts | 12° |
| 2026-05-05 02:29 | 57.56598 | 3.40523 | 35012 ft | 448 kts | 11° |
| 2026-05-05 02:29 | 57.62537 | 3.44023 | 35039 ft | 448 kts | 11° |
| 2026-05-05 02:30 | 57.68482 | 3.47543 | 35021 ft | 448 kts | 11° |
| 2026-05-05 02:30 | 57.74428 | 3.51081 | 35012 ft | 448 kts | 11° |
| 2026-05-05 02:31 | 57.80375 | 3.54616 | 35014 ft | 449 kts | 11° |
| 2026-05-05 02:31 | 57.86328 | 3.58161 | 35012 ft | 449 kts | 11° |
| 2026-05-05 02:32 | 57.92258 | 3.61911 | 35042 ft | 451 kts | 13° |
| 2026-05-05 02:32 | 57.98109 | 3.66318 | 35027 ft | 454 kts | 17° |
| 2026-05-05 02:33 | 58.03913 | 3.71060 | 35011 ft | 455 kts | 17° |
| 2026-05-05 02:33 | 58.08743 | 3.75007 | 35007 ft | 455 kts | 17° |
| 2026-05-05 02:34 | 58.14569 | 3.79650 | 35058 ft | 455 kts | 16° |
| 2026-05-05 02:34 | 58.20417 | 3.84259 | 35035 ft | 455 kts | 16° |
| 2026-05-05 02:35 | 58.26267 | 3.88897 | 35017 ft | 455 kts | 16° |
| 2026-05-05 02:35 | 58.32108 | 3.93578 | 35017 ft | 456 kts | 16° |
| 2026-05-05 02:36 | 58.37950 | 3.98290 | 35008 ft | 456 kts | 16° |
| 2026-05-05 02:36 | 58.43793 | 4.03000 | 35049 ft | 456 kts | 16° |
| 2026-05-05 02:37 | 58.49638 | 4.07727 | 35031 ft | 456 kts | 16° |
| 2026-05-05 02:37 | 58.55479 | 4.12466 | 35027 ft | 456 kts | 16° |
| 2026-05-05 02:38 | 58.61286 | 4.17198 | 35021 ft | 456 kts | 16° |
| 2026-05-05 02:38 | 58.67125 | 4.21979 | 35013 ft | 456 kts | 16° |
| 2026-05-05 02:39 | 58.72960 | 4.26772 | 35014 ft | 456 kts | 16° |
| 2026-05-05 02:39 | 58.78801 | 4.31593 | 35010 ft | 456 kts | 16° |
| 2026-05-05 02:40 | 58.84645 | 4.36432 | 35012 ft | 456 kts | 16° |
| 2026-05-05 02:40 | 58.90484 | 4.41272 | 35009 ft | 456 kts | 16° |
| 2026-05-05 02:41 | 58.96322 | 4.46125 | 35053 ft | 457 kts | 16° |
| 2026-05-05 02:41 | 59.02161 | 4.51011 | 35021 ft | 457 kts | 16° |
| 2026-05-05 02:42 | 59.08000 | 4.55917 | 35011 ft | 458 kts | 16° |
| 2026-05-05 02:42 | 59.13809 | 4.60819 | 35004 ft | 458 kts | 16° |
| 2026-05-05 02:43 | 59.19654 | 4.65759 | 34997 ft | 458 kts | 16° |
| 2026-05-05 02:43 | 59.25512 | 4.70722 | 35020 ft | 459 kts | 16° |
| 2026-05-05 02:44 | 59.31364 | 4.75714 | 35003 ft | 459 kts | 16° |
| 2026-05-05 02:44 | 59.37221 | 4.80722 | 34992 ft | 459 kts | 16° |
| 2026-05-05 02:45 | 59.43074 | 4.85749 | 34984 ft | 459 kts | 16° |
| 2026-05-05 02:45 | 59.48927 | 4.90795 | 34985 ft | 459 kts | 16° |
| 2026-05-05 02:46 | 59.54781 | 4.95880 | 34989 ft | 459 kts | 16° |
| 2026-05-05 02:46 | 59.60620 | 5.00945 | 34979 ft | 458 kts | 15° |
| 2026-05-05 02:47 | 59.66458 | 5.06016 | 34975 ft | 459 kts | 16° |
| 2026-05-05 02:47 | 59.72299 | 5.11126 | 34975 ft | 459 kts | 16° |
| 2026-05-05 02:48 | 59.78147 | 5.16264 | 34971 ft | 459 kts | 16° |
| 2026-05-05 02:48 | 59.83990 | 5.21422 | 34999 ft | 460 kts | 16° |
| 2026-05-05 02:49 | 59.89817 | 5.26572 | 34981 ft | 461 kts | 16° |
| 2026-05-05 02:49 | 59.95680 | 5.31781 | 34955 ft | 461 kts | 16° |
| 2026-05-05 02:50 | 60.01544 | 5.37015 | 34960 ft | 462 kts | 16° |
| 2026-05-05 02:50 | 60.07409 | 5.42270 | 35017 ft | 463 kts | 16° |
| 2026-05-05 02:51 | 60.13316 | 5.47570 | 34973 ft | 466 kts | 16° |
| 2026-05-05 02:51 | 60.19234 | 5.52912 | 34969 ft | 467 kts | 17° |
| 2026-05-05 02:52 | 60.25150 | 5.58287 | 34960 ft | 467 kts | 17° |
| 2026-05-05 02:52 | 60.31076 | 5.63700 | 34954 ft | 468 kts | 17° |
| 2026-05-05 02:53 | 60.37010 | 5.69123 | 34995 ft | 468 kts | 17° |
| 2026-05-05 02:53 | 60.42953 | 5.74562 | 34964 ft | 469 kts | 17° |
| 2026-05-05 02:54 | 60.48855 | 5.79992 | 34957 ft | 469 kts | 17° |
| 2026-05-05 02:54 | 60.54796 | 5.85477 | 34941 ft | 469 kts | 17° |
| 2026-05-05 02:55 | 60.60744 | 5.90996 | 34939 ft | 470 kts | 17° |
| 2026-05-05 02:55 | 60.66689 | 5.96546 | 34977 ft | 469 kts | 18° |
| 2026-05-05 02:56 | 60.72631 | 6.02111 | 34960 ft | 469 kts | 18° |
| 2026-05-05 02:56 | 60.78553 | 6.07684 | 34943 ft | 468 kts | 18° |
| 2026-05-05 02:57 | 60.84445 | 6.13253 | 34941 ft | 468 kts | 18° |
| 2026-05-05 02:57 | 60.90362 | 6.18861 | 34988 ft | 468 kts | 18° |
| 2026-05-05 02:58 | 60.96267 | 6.24472 | 34915 ft | 466 kts | 18° |
| 2026-05-05 02:58 | 61.02154 | 6.30094 | 34908 ft | 466 kts | 18° |
| 2026-05-05 02:59 | 61.08045 | 6.35743 | 34905 ft | 467 kts | 18° |
| 2026-05-05 02:59 | 61.13935 | 6.41419 | 34884 ft | 467 kts | 18° |
| 2026-05-05 03:00 | 61.19822 | 6.47100 | 34927 ft | 467 kts | 18° |
| 2026-05-05 03:00 | 61.25712 | 6.52823 | 34920 ft | 467 kts | 18° |
| 2026-05-05 03:01 | 61.31590 | 6.58565 | 34910 ft | 467 kts | 19° |
| 2026-05-05 03:01 | 61.37486 | 6.64337 | 34895 ft | 467 kts | 18° |
| 2026-05-05 03:02 | 61.43367 | 6.70103 | 34906 ft | 467 kts | 19° |
| 2026-05-05 03:02 | 61.49241 | 6.75907 | 34889 ft | 467 kts | 19° |
| 2026-05-05 03:03 | 61.55116 | 6.81733 | 34891 ft | 467 kts | 19° |
| 2026-05-05 03:03 | 61.60948 | 6.87554 | 34892 ft | 467 kts | 19° |
| 2026-05-05 03:04 | 61.66825 | 6.93437 | 34893 ft | 467 kts | 19° |
| 2026-05-05 03:04 | 61.72695 | 6.99339 | 34892 ft | 467 kts | 19° |
| 2026-05-05 03:05 | 61.78563 | 7.05256 | 34939 ft | 467 kts | 19° |
| 2026-05-05 03:05 | 61.84435 | 7.11200 | 34927 ft | 468 kts | 20° |
| 2026-05-05 03:06 | 61.90302 | 7.17156 | 34932 ft | 467 kts | 19° |
| 2026-05-05 03:06 | 61.96169 | 7.23142 | 34908 ft | 468 kts | 19° |
| 2026-05-05 03:07 | 62.02039 | 7.29174 | 34899 ft | 468 kts | 19° |
| 2026-05-05 03:07 | 62.07905 | 7.35234 | 34927 ft | 469 kts | 20° |
| 2026-05-05 03:08 | 62.13773 | 7.41325 | 34913 ft | 469 kts | 20° |
| 2026-05-05 03:08 | 62.19608 | 7.47391 | 34906 ft | 469 kts | 20° |
| 2026-05-05 03:09 | 62.25474 | 7.53505 | 34897 ft | 469 kts | 20° |
| 2026-05-05 03:09 | 62.31332 | 7.59636 | 34877 ft | 468 kts | 20° |
| 2026-05-05 03:10 | 62.37181 | 7.65784 | 34895 ft | 468 kts | 20° |
| 2026-05-05 03:10 | 62.43034 | 7.71980 | 34887 ft | 468 kts | 21° |
| 2026-05-05 03:11 | 62.48871 | 7.78205 | 34871 ft | 468 kts | 21° |
| 2026-05-05 03:11 | 62.54712 | 7.84436 | 34866 ft | 468 kts | 21° |
| 2026-05-05 03:12 | 62.60556 | 7.90684 | 34898 ft | 468 kts | 21° |
| 2026-05-05 03:12 | 62.66394 | 7.96959 | 34882 ft | 468 kts | 21° |
| 2026-05-05 03:13 | 62.72224 | 8.03266 | 34884 ft | 468 kts | 21° |
| 2026-05-05 03:13 | 62.78048 | 8.09598 | 34881 ft | 468 kts | 21° |
| 2026-05-05 03:14 | 62.83869 | 8.15941 | 34870 ft | 467 kts | 21° |
| 2026-05-05 03:14 | 62.89683 | 8.22307 | 34905 ft | 467 kts | 21° |
| 2026-05-05 03:15 | 62.95495 | 8.28707 | 34884 ft | 467 kts | 22° |
| 2026-05-05 03:15 | 63.01265 | 8.35105 | 34873 ft | 467 kts | 22° |
| 2026-05-05 03:16 | 63.07075 | 8.41563 | 34862 ft | 467 kts | 22° |
| 2026-05-05 03:16 | 63.12876 | 8.48031 | 34854 ft | 467 kts | 22° |
| 2026-05-05 03:17 | 63.18672 | 8.54522 | 34896 ft | 467 kts | 22° |
| 2026-05-05 03:17 | 63.24465 | 8.61023 | 34873 ft | 466 kts | 22° |
| 2026-05-05 03:18 | 63.30252 | 8.67564 | 34866 ft | 466 kts | 22° |
| 2026-05-05 03:18 | 63.36023 | 8.74130 | 34850 ft | 466 kts | 22° |
| 2026-05-05 03:19 | 63.44669 | 8.84019 | 34848 ft | 465 kts | 22° |
| 2026-05-05 03:19 | 63.50428 | 8.90623 | 34869 ft | 465 kts | 23° |
| 2026-05-05 03:20 | 63.55211 | 8.96138 | 34854 ft | 465 kts | 23° |
| 2026-05-05 03:20 | 63.60951 | 9.02797 | 34843 ft | 464 kts | 23° |
| 2026-05-05 03:21 | 63.66688 | 9.09471 | 34842 ft | 464 kts | 23° |
| 2026-05-05 03:21 | 63.72417 | 9.16172 | 34836 ft | 464 kts | 23° |
| 2026-05-05 03:22 | 63.78143 | 9.22889 | 34854 ft | 464 kts | 24° |
| 2026-05-05 03:22 | 63.83823 | 9.29588 | 34844 ft | 463 kts | 24° |
| 2026-05-05 03:23 | 63.89532 | 9.36375 | 34840 ft | 462 kts | 24° |
| 2026-05-05 03:23 | 63.95232 | 9.43150 | 34817 ft | 462 kts | 24° |
| 2026-05-05 03:24 | 64.00933 | 9.49952 | 34807 ft | 462 kts | 24° |
| 2026-05-05 03:24 | 64.06624 | 9.56798 | 34827 ft | 462 kts | 25° |
| 2026-05-05 03:25 | 64.12312 | 9.63684 | 34817 ft | 462 kts | 25° |
| 2026-05-05 03:25 | 64.17995 | 9.70570 | 34811 ft | 462 kts | 25° |
| 2026-05-05 03:26 | 64.23665 | 9.77486 | 34805 ft | 461 kts | 25° |
| 2026-05-05 03:26 | 64.29332 | 9.84425 | 34796 ft | 461 kts | 25° |
| 2026-05-05 03:27 | 64.34989 | 9.91386 | 34792 ft | 461 kts | 25° |
| 2026-05-05 03:27 | 64.40653 | 9.98383 | 34784 ft | 461 kts | 25° |
| 2026-05-05 03:28 | 64.46303 | 10.05394 | 34779 ft | 461 kts | 25° |
| 2026-05-05 03:28 | 64.51950 | 10.12453 | 34778 ft | 461 kts | 25° |
| 2026-05-05 03:29 | 64.57596 | 10.19524 | 34781 ft | 461 kts | 25° |
| 2026-05-05 03:29 | 64.63234 | 10.26629 | 34798 ft | 461 kts | 25° |
| 2026-05-05 03:30 | 64.68870 | 10.33771 | 34793 ft | 460 kts | 25° |
| 2026-05-05 03:30 | 64.74492 | 10.40925 | 34783 ft | 460 kts | 26° |
| 2026-05-05 03:31 | 64.80100 | 10.48105 | 34776 ft | 459 kts | 26° |
| 2026-05-05 03:31 | 64.85706 | 10.55310 | 34760 ft | 459 kts | 26° |
| 2026-05-05 03:32 | 64.91311 | 10.62526 | 34754 ft | 459 kts | 26° |
| 2026-05-05 03:32 | 64.96908 | 10.69777 | 34769 ft | 459 kts | 26° |
| 2026-05-05 03:33 | 65.02487 | 10.77057 | 34767 ft | 458 kts | 26° |
| 2026-05-05 03:33 | 65.08036 | 10.84319 | 34758 ft | 458 kts | 26° |
| 2026-05-05 03:34 | 65.13613 | 10.91622 | 34752 ft | 458 kts | 26° |
| 2026-05-05 03:34 | 65.19186 | 10.98978 | 34742 ft | 459 kts | 26° |
| 2026-05-05 03:35 | 65.24756 | 11.06473 | 34731 ft | 461 kts | 27° |
| 2026-05-05 03:35 | 65.30136 | 11.14836 | 34752 ft | 461 kts | 31° |
| 2026-05-05 03:36 | 65.35565 | 11.22936 | 34749 ft | 459 kts | 28° |
| 2026-05-05 03:36 | 65.41051 | 11.30731 | 34750 ft | 458 kts | 28° |
| 2026-05-05 03:37 | 65.46541 | 11.38503 | 34741 ft | 458 kts | 28° |
| 2026-05-05 03:37 | 65.52006 | 11.46385 | 34755 ft | 457 kts | 29° |
| 2026-05-05 03:38 | 65.57448 | 11.54326 | 34736 ft | 457 kts | 29° |
| 2026-05-05 03:38 | 65.62882 | 11.62295 | 34732 ft | 457 kts | 29° |
| 2026-05-05 03:39 | 65.68320 | 11.70274 | 34726 ft | 456 kts | 29° |
| 2026-05-05 03:39 | 65.73752 | 11.78276 | 34723 ft | 456 kts | 29° |
| 2026-05-05 03:40 | 65.79174 | 11.86312 | 34727 ft | 456 kts | 29° |
| 2026-05-05 03:40 | 65.84553 | 11.94323 | 34718 ft | 456 kts | 29° |
| 2026-05-05 03:41 | 65.89961 | 12.02421 | 34710 ft | 456 kts | 30° |
| 2026-05-05 03:41 | 65.95364 | 12.10568 | 34685 ft | 456 kts | 30° |
| 2026-05-05 03:42 | 66.00764 | 12.18736 | 34692 ft | 456 kts | 30° |
| 2026-05-05 03:42 | 66.06158 | 12.26939 | 34673 ft | 456 kts | 30° |
| 2026-05-05 03:43 | 66.11554 | 12.35180 | 34689 ft | 456 kts | 30° |
| 2026-05-05 03:43 | 66.16937 | 12.43442 | 34670 ft | 455 kts | 30° |
| 2026-05-05 03:44 | 66.22312 | 12.51735 | 34667 ft | 455 kts | 30° |
| 2026-05-05 03:44 | 66.27683 | 12.60073 | 34666 ft | 455 kts | 30° |
| 2026-05-05 03:45 | 66.33042 | 12.68442 | 34664 ft | 455 kts | 30° |
| 2026-05-05 03:45 | 66.38394 | 12.76845 | 34677 ft | 455 kts | 30° |
| 2026-05-05 03:46 | 66.43750 | 12.85258 | 34677 ft | 454 kts | 30° |
| 2026-05-05 03:46 | 66.49061 | 12.93659 | 34665 ft | 454 kts | 31° |
| 2026-05-05 03:47 | 66.54393 | 13.02162 | 34667 ft | 454 kts | 31° |
| 2026-05-05 03:47 | 66.59715 | 13.10689 | 34665 ft | 453 kts | 31° |
| 2026-05-05 03:48 | 66.65026 | 13.19241 | 34652 ft | 453 kts | 31° |
| 2026-05-05 03:48 | 66.70344 | 13.27822 | 34657 ft | 453 kts | 31° |
| 2026-05-05 03:49 | 66.75657 | 13.36456 | 34646 ft | 453 kts | 31° |
| 2026-05-05 03:49 | 66.80963 | 13.45118 | 34642 ft | 454 kts | 31° |
| 2026-05-05 03:50 | 66.86226 | 13.53750 | 34625 ft | 454 kts | 31° |
| 2026-05-05 03:50 | 66.91523 | 13.62501 | 34621 ft | 454 kts | 31° |
| 2026-05-05 03:51 | 66.96817 | 13.71295 | 34627 ft | 454 kts | 31° |
| 2026-05-05 03:51 | 67.02111 | 13.80114 | 34625 ft | 454 kts | 31° |
| 2026-05-05 03:52 | 67.07396 | 13.88972 | 34618 ft | 454 kts | 31° |
| 2026-05-05 03:52 | 67.12673 | 13.97875 | 34617 ft | 454 kts | 32° |
| 2026-05-05 03:53 | 67.17945 | 14.06806 | 34595 ft | 454 kts | 31° |
| 2026-05-05 03:53 | 67.23219 | 14.15795 | 34589 ft | 454 kts | 32° |
| 2026-05-05 03:54 | 67.28446 | 14.24761 | 34589 ft | 454 kts | 32° |
| 2026-05-05 03:54 | 67.33707 | 14.33815 | 34588 ft | 454 kts | 32° |
| 2026-05-05 03:55 | 67.38956 | 14.42922 | 34591 ft | 454 kts | 32° |
| 2026-05-05 03:55 | 67.44216 | 14.52064 | 34594 ft | 454 kts | 32° |
| 2026-05-05 03:56 | 67.49458 | 14.61224 | 34599 ft | 454 kts | 32° |
| 2026-05-05 03:56 | 67.54696 | 14.70443 | 34613 ft | 454 kts | 32° |
| 2026-05-05 03:57 | 67.59925 | 14.79699 | 34604 ft | 454 kts | 33° |
| 2026-05-05 03:57 | 67.65151 | 14.88992 | 34601 ft | 454 kts | 33° |
| 2026-05-05 03:58 | 67.70364 | 14.98334 | 34599 ft | 454 kts | 32° |
| 2026-05-05 03:58 | 67.75577 | 15.07699 | 34601 ft | 454 kts | 33° |
| 2026-05-05 03:59 | 67.80790 | 15.17114 | 34599 ft | 453 kts | 33° |
| 2026-05-05 03:59 | 67.85996 | 15.26552 | 34605 ft | 453 kts | 33° |
| 2026-05-05 04:00 | 67.91157 | 15.35965 | 34599 ft | 453 kts | 33° |
| 2026-05-05 04:00 | 67.96367 | 15.45544 | 34599 ft | 452 kts | 33° |
| 2026-05-05 04:01 | 68.01500 | 15.55073 | 34593 ft | 452 kts | 34° |
| 2026-05-05 04:01 | 68.06658 | 15.64678 | 34588 ft | 452 kts | 34° |
| 2026-05-05 04:02 | 68.11817 | 15.74314 | 34590 ft | 452 kts | 34° |
| 2026-05-05 04:02 | 68.16966 | 15.83978 | 34409 ft | 452 kts | 34° |
| 2026-05-05 04:03 | 68.19537 | 15.88837 | 33819 ft | 452 kts | 34° |
| 2026-05-05 04:03 | 68.22102 | 15.93699 | 33220 ft | 450 kts | 34° |
| 2026-05-05 04:03 | 68.24650 | 15.98542 | 32667 ft | 446 kts | 34° |
| 2026-05-05 04:03 | 68.27172 | 16.03353 | 32130 ft | 442 kts | 34° |
| 2026-05-05 04:04 | 68.29668 | 16.08121 | 31602 ft | 438 kts | 34° |
| 2026-05-05 04:04 | 68.32146 | 16.12858 | 31073 ft | 434 kts | 34° |
| 2026-05-05 04:04 | 68.34603 | 16.17567 | 30557 ft | 431 kts | 34° |
| 2026-05-05 04:04 | 68.37037 | 16.22248 | 30048 ft | 427 kts | 34° |
| 2026-05-05 04:05 | 68.39419 | 16.26835 | 29537 ft | 424 kts | 35° |
| 2026-05-05 04:05 | 68.41810 | 16.31452 | 28995 ft | 418 kts | 35° |
| 2026-05-05 04:05 | 68.44159 | 16.36010 | 28525 ft | 412 kts | 36° |
| 2026-05-05 04:05 | 68.46470 | 16.40510 | 28071 ft | 405 kts | 36° |
| 2026-05-05 04:06 | 68.48745 | 16.44949 | 27623 ft | 399 kts | 36° |
| 2026-05-05 04:06 | 68.50985 | 16.49328 | 27178 ft | 393 kts | 36° |
| 2026-05-05 04:06 | 68.53192 | 16.53653 | 26740 ft | 387 kts | 36° |
| 2026-05-05 04:06 | 68.55362 | 16.57913 | 26306 ft | 382 kts | 36° |
| 2026-05-05 04:07 | 68.57509 | 16.62137 | 25867 ft | 377 kts | 36° |
| 2026-05-05 04:07 | 68.59623 | 16.66303 | 25437 ft | 372 kts | 36° |
| 2026-05-05 04:07 | 68.61011 | 16.69042 | 25145 ft | 370 kts | 36° |
| 2026-05-05 04:07 | 68.63090 | 16.73155 | 24700 ft | 366 kts | 37° |
| 2026-05-05 04:08 | 68.65141 | 16.77228 | 24259 ft | 362 kts | 37° |
| 2026-05-05 04:08 | 68.67170 | 16.81272 | 23789 ft | 359 kts | 37° |
| 2026-05-05 04:08 | 68.69184 | 16.85300 | 23346 ft | 357 kts | 37° |
| 2026-05-05 04:08 | 68.71185 | 16.89305 | 22843 ft | 355 kts | 37° |
| 2026-05-05 04:09 | 68.73171 | 16.93290 | 22375 ft | 350 kts | 37° |
| 2026-05-05 04:09 | 68.75126 | 16.97220 | 21945 ft | 346 kts | 38° |
| 2026-05-05 04:09 | 68.77066 | 17.01122 | 21507 ft | 343 kts | 37° |
| 2026-05-05 04:09 | 68.78988 | 17.04992 | 21073 ft | 340 kts | 38° |
| 2026-05-05 04:10 | 68.80890 | 17.08828 | 20659 ft | 338 kts | 38° |
| 2026-05-05 04:10 | 68.82781 | 17.12659 | 20243 ft | 335 kts | 38° |
| 2026-05-05 04:10 | 68.84652 | 17.16465 | 19826 ft | 332 kts | 38° |
| 2026-05-05 04:10 | 68.86509 | 17.20251 | 19421 ft | 330 kts | 38° |
| 2026-05-05 04:11 | 68.88331 | 17.23974 | 19020 ft | 328 kts | 38° |
| 2026-05-05 04:11 | 68.90164 | 17.27725 | 18622 ft | 327 kts | 38° |
| 2026-05-05 04:11 | 68.91993 | 17.31472 | 18206 ft | 326 kts | 38° |
| 2026-05-05 04:11 | 68.93810 | 17.35210 | 17806 ft | 325 kts | 38° |
| 2026-05-05 04:12 | 68.95625 | 17.38935 | 17373 ft | 323 kts | 38° |
| 2026-05-05 04:12 | 68.97430 | 17.42639 | 16980 ft | 321 kts | 38° |
| 2026-05-05 04:12 | 68.99218 | 17.46320 | 16593 ft | 318 kts | 38° |
| 2026-05-05 04:12 | 69.00990 | 17.49987 | 16212 ft | 316 kts | 38° |
| 2026-05-05 04:13 | 69.02749 | 17.53641 | 15837 ft | 314 kts | 38° |
| 2026-05-05 04:13 | 69.04497 | 17.57282 | 15463 ft | 313 kts | 38° |
| 2026-05-05 04:13 | 69.06240 | 17.60905 | 15093 ft | 311 kts | 38° |
| 2026-05-05 04:13 | 69.07970 | 17.64503 | 14731 ft | 310 kts | 38° |
| 2026-05-05 04:14 | 69.09698 | 17.68115 | 14360 ft | 309 kts | 38° |
| 2026-05-05 04:14 | 69.11414 | 17.71717 | 13992 ft | 308 kts | 38° |
| 2026-05-05 04:14 | 69.13132 | 17.75337 | 13627 ft | 307 kts | 38° |
| 2026-05-05 04:14 | 69.14836 | 17.78932 | 13249 ft | 306 kts | 38° |
| 2026-05-05 04:15 | 69.16537 | 17.82516 | 12855 ft | 304 kts | 38° |
| 2026-05-05 04:15 | 69.18203 | 17.86028 | 12499 ft | 302 kts | 38° |
| 2026-05-05 04:15 | 69.19880 | 17.89566 | 12126 ft | 300 kts | 38° |
| 2026-05-05 04:15 | 69.21544 | 17.93080 | 11759 ft | 299 kts | 38° |
| 2026-05-05 04:16 | 69.23201 | 17.96596 | 11384 ft | 297 kts | 38° |
| 2026-05-05 04:16 | 69.24843 | 18.00085 | 11009 ft | 295 kts | 38° |
| 2026-05-05 04:16 | 69.26475 | 18.03565 | 10646 ft | 293 kts | 38° |
| 2026-05-05 04:16 | 69.28097 | 18.07031 | 10315 ft | 290 kts | 38° |
| 2026-05-05 04:17 | 69.29684 | 18.10436 | 9971 ft | 287 kts | 38° |
| 2026-05-05 04:17 | 69.31263 | 18.13839 | 9633 ft | 284 kts | 38° |
| 2026-05-05 04:17 | 69.32834 | 18.17227 | 9285 ft | 282 kts | 38° |
| 2026-05-05 04:17 | 69.34398 | 18.20598 | 8847 ft | 281 kts | 38° |
| 2026-05-05 04:18 | 69.35907 | 18.24074 | 8417 ft | 279 kts | 46° |
| 2026-05-05 04:18 | 69.37070 | 18.28380 | 7971 ft | 274 kts | 61° |
| 2026-05-05 04:18 | 69.37789 | 18.33320 | 7554 ft | 270 kts | 73° |
| 2026-05-05 04:18 | 69.38320 | 18.38421 | 7146 ft | 269 kts | 73° |
| 2026-05-05 04:19 | 69.38858 | 18.43497 | 6784 ft | 267 kts | 73° |
| 2026-05-05 04:19 | 69.39378 | 18.48415 | 6678 ft | 254 kts | 73° |
| 2026-05-05 04:19 | 69.39872 | 18.53124 | 6544 ft | 243 kts | 73° |
| 2026-05-05 04:19 | 69.40345 | 18.57627 | 6416 ft | 233 kts | 73° |
| 2026-05-05 04:20 | 69.40801 | 18.61961 | 6289 ft | 225 kts | 73° |
| 2026-05-05 04:20 | 69.41242 | 18.66159 | 6165 ft | 218 kts | 73° |
| 2026-05-05 04:20 | 69.41679 | 18.70210 | 6036 ft | 212 kts | 69° |
| 2026-05-05 04:20 | 69.42484 | 18.73648 | 5908 ft | 210 kts | 42° |
| 2026-05-05 04:21 | 69.43744 | 18.75687 | 5780 ft | 211 kts | 16° |
| 2026-05-05 04:21 | 69.45169 | 18.76644 | 5613 ft | 210 kts | 13° |
| 2026-05-05 04:21 | 69.46586 | 18.77553 | 5341 ft | 209 kts | 13° |
| 2026-05-05 04:21 | 69.47991 | 18.78466 | 5096 ft | 208 kts | 13° |
| 2026-05-05 04:22 | 69.49344 | 18.79348 | 4974 ft | 190 kts | 13° |
| 2026-05-05 04:22 | 69.50591 | 18.80165 | 4700 ft | 178 kts | 13° |
| 2026-05-05 04:22 | 69.51754 | 18.80927 | 4390 ft | 164 kts | 13° |
| 2026-05-05 04:22 | 69.52827 | 18.81632 | 4081 ft | 153 kts | 13° |
| 2026-05-05 04:23 | 69.53834 | 18.82294 | 3776 ft | 145 kts | 14° |
| 2026-05-05 04:23 | 69.54802 | 18.82930 | 3524 ft | 141 kts | 14° |
| 2026-05-05 04:23 | 69.55752 | 18.83556 | 3264 ft | 140 kts | 14° |
| 2026-05-05 04:23 | 69.56698 | 18.84180 | 3004 ft | 139 kts | 14° |
| 2026-05-05 04:24 | 69.57639 | 18.84800 | 2749 ft | 138 kts | 14° |
| 2026-05-05 04:24 | 69.58574 | 18.85417 | 2488 ft | 137 kts | 14° |
| 2026-05-05 04:24 | 69.59504 | 18.86032 | 2230 ft | 137 kts | 14° |
| 2026-05-05 04:25 | 69.61360 | 18.87259 | 1688 ft | 137 kts | 13° |
| 2026-05-05 04:25 | 69.62284 | 18.87860 | 1434 ft | 136 kts | 13° |
| 2026-05-05 04:25 | 69.63203 | 18.88482 | 1148 ft | 135 kts | 13° |
| 2026-05-05 04:25 | 69.64119 | 18.89075 | 907 ft | 134 kts | 13° |
| 2026-05-05 04:26 | 69.65028 | 18.89675 | 674 ft | 133 kts | 14° |
| 2026-05-05 04:26 | 69.65927 | 18.90287 | 416 ft | 132 kts | 13° |
| 2026-05-05 04:26 | 69.66810 | 18.90872 | 209 ft | 131 kts | 14° |
| 2026-05-05 04:26 | 69.67691 | 18.91462 | 48 ft | 124 kts | 14° |
| 2026-05-05 04:27 | 69.68378 | 18.91918 | 30 ft | 64 kts | 13° |
| 2026-05-05 04:27 | 69.68649 | 18.92101 | 24 ft | 27 kts | 13° |
| 2026-05-05 04:27 | 69.68756 | 18.92087 | 20 ft | 12 kts | 301° |
| 2026-05-05 04:27 | 69.68774 | 18.91875 | 20 ft | 9 kts | 283° |
| 2026-05-05 04:28 | 69.68757 | 18.91706 | 20 ft | 15 kts | 207° |
| 2026-05-05 04:28 | 69.68568 | 18.91582 | 25 ft | 40 kts | 193° |
| 2026-05-05 04:28 | 69.68351 | 18.91496 | 27 ft | 26 kts | 182° |
| 2026-05-05 04:28 | 69.68177 | 18.91397 | 33 ft | 24 kts | 193° |
| 2026-05-05 04:29 | 69.68047 | 18.91312 | 35 ft | 10 kts | 193° |
| 2026-05-05 04:29 | 69.68028 | 18.91232 | 35 ft | 4 kts | 276° |
| 2026-05-05 04:29 | 69.68043 | 18.91068 | 34 ft | 7 kts | 283° |
| 2026-05-05 04:29 | 69.68051 | 18.90971 | 34 ft | 1 kts | 283° |
| 2026-05-05 04:30 | 69.68051 | 18.90969 | 34 ft | 0 kts | 283° |